createdAt,value
2019-05-23T00:01:23.674Z,7.94
2019-05-23T00:04:02.873Z,7.91
2019-05-23T00:06:36.040Z,7.88
2019-05-23T00:09:06.597Z,7.86
2019-05-23T00:11:40.204Z,7.82
2019-05-23T00:14:24.129Z,7.83
2019-05-23T00:16:54.731Z,7.83
2019-05-23T00:19:23.983Z,7.79
2019-05-23T00:21:53.223Z,7.79
2019-05-23T00:24:24.110Z,7.77
2019-05-23T00:26:53.188Z,7.76
2019-05-23T00:29:22.713Z,7.74
2019-05-23T00:32:08.867Z,7.71
2019-05-23T00:34:39.737Z,7.68
2019-05-23T00:37:09.361Z,7.64
2019-05-23T00:39:38.358Z,7.66
2019-05-23T00:42:07.932Z,7.64
2019-05-23T00:44:38.157Z,7.60
2019-05-23T00:47:09.687Z,7.58
2019-05-23T00:49:38.172Z,7.55
2019-05-23T00:52:08.468Z,7.52
2019-05-23T00:54:36.927Z,7.47
2019-05-23T00:57:06.932Z,7.46
2019-05-23T00:59:35.806Z,7.43
2019-05-23T01:02:05.982Z,7.39
2019-05-23T01:04:34.855Z,7.31
2019-05-23T01:07:04.334Z,7.34
2019-05-23T01:09:33.721Z,7.31
2019-05-23T01:12:05.326Z,7.28
2019-05-23T01:14:34.402Z,7.26
2019-05-23T01:17:04.458Z,7.25
2019-05-23T01:19:33.881Z,7.25
2019-05-23T01:22:04.087Z,7.24
2019-05-23T01:24:34.505Z,7.22
2019-05-23T01:27:04.861Z,7.22
2019-05-23T01:29:38.559Z,7.22
2019-05-23T01:32:11.693Z,7.20
2019-05-23T01:34:41.305Z,7.21
2019-05-23T01:37:12.091Z,7.23
2019-05-23T01:39:41.493Z,7.20
2019-05-23T01:42:10.085Z,7.16
2019-05-23T01:44:39.538Z,7.10
2019-05-23T01:47:08.767Z,7.06
2019-05-23T01:49:37.162Z,7.03
2019-05-23T01:52:07.906Z,7.03
2019-05-23T01:54:36.494Z,7.04
2019-05-23T01:57:06.035Z,7.05
2019-05-23T01:59:35.943Z,7.03
2019-05-23T02:02:05.094Z,7.01
2019-05-23T02:04:33.474Z,6.98
2019-05-23T02:07:01.962Z,6.97
2019-05-23T02:09:30.405Z,6.92
2019-05-23T02:12:00.344Z,6.90
2019-05-23T02:14:28.726Z,6.84
2019-05-23T02:16:58.340Z,6.82
2019-05-23T02:19:28.035Z,6.78
2019-05-23T02:21:57.504Z,6.76
2019-05-23T02:24:26.924Z,6.72
2019-05-23T02:26:55.742Z,6.69
2019-05-23T02:29:24.112Z,6.67
2019-05-23T02:31:53.470Z,6.64
2019-05-23T02:34:21.853Z,6.62
2019-05-23T02:36:51.614Z,6.61
2019-05-23T02:39:21.752Z,6.59
2019-05-23T02:41:58.957Z,6.58
2019-05-23T02:44:29.754Z,6.54
2019-05-23T02:46:59.797Z,6.52
2019-05-23T02:49:31.715Z,6.48
2019-05-23T02:52:03.825Z,6.46
2019-05-23T02:54:37.485Z,6.45
2019-05-23T02:57:07.915Z,6.45
2019-05-23T02:59:42.257Z,6.42
2019-05-23T03:02:43.872Z,6.42
2019-05-23T03:05:13.970Z,6.42
2019-05-23T03:07:44.017Z,6.41
2019-05-23T03:10:13.791Z,6.40
2019-05-23T03:12:43.625Z,6.37
2019-05-23T03:15:14.712Z,6.34
2019-05-23T03:17:45.212Z,6.33
2019-05-23T03:20:13.676Z,6.32
2019-05-23T03:22:50.940Z,6.34
2019-05-23T03:25:38.984Z,6.36
2019-05-23T03:28:10.015Z,6.36
2019-05-23T03:30:46.359Z,6.23
2019-05-23T03:33:16.561Z,6.35
2019-05-23T03:36:02.235Z,6.33
2019-05-23T03:38:30.810Z,6.34
2019-05-23T03:40:59.175Z,6.33
2019-05-23T03:43:28.406Z,6.35
2019-05-23T03:46:02.151Z,6.37
2019-05-23T03:48:31.595Z,6.39
2019-05-23T03:51:04.037Z,6.43
2019-05-23T03:53:33.294Z,6.48
2019-05-23T03:56:02.063Z,6.52
2019-05-23T03:58:32.041Z,6.44
2019-05-23T04:01:02.167Z,6.69
2019-05-23T04:03:30.588Z,6.76
2019-05-23T04:06:00.743Z,6.79
2019-05-23T04:08:30.111Z,6.82
2019-05-23T04:10:58.795Z,6.85
2019-05-23T04:13:27.280Z,6.90
2019-05-23T04:15:55.810Z,6.95
2019-05-23T04:18:24.990Z,7.00
2019-05-23T04:20:54.695Z,7.06
2019-05-23T04:23:23.058Z,7.12
2019-05-23T04:25:53.038Z,7.18
2019-05-23T04:28:21.804Z,7.26
2019-05-23T04:30:52.396Z,7.34
2019-05-23T04:33:21.138Z,7.41
2019-05-23T04:35:51.061Z,7.51
2019-05-23T04:38:19.668Z,7.61
2019-05-23T04:40:49.821Z,7.71
2019-05-23T04:43:18.285Z,7.82
2019-05-23T04:45:48.603Z,7.93
2019-05-23T04:48:17.417Z,8.04
2019-05-23T04:50:47.510Z,8.16
2019-05-23T04:53:15.961Z,8.27
2019-05-23T04:55:47.699Z,8.39
2019-05-23T04:58:17.425Z,8.52
2019-05-23T05:00:47.324Z,8.64
2019-05-23T05:03:18.214Z,8.78
2019-05-23T05:05:47.973Z,8.91
2019-05-23T05:08:16.782Z,9.06
2019-05-23T05:10:47.392Z,9.22
2019-05-23T05:13:15.809Z,9.37
2019-05-23T05:15:44.295Z,9.52
2019-05-23T05:18:14.285Z,9.67
2019-05-23T05:20:42.775Z,9.81
2019-05-23T05:23:11.238Z,9.95
2019-05-23T05:25:39.742Z,10.11
2019-05-23T05:28:08.304Z,10.16
2019-05-23T05:30:38.369Z,10.19
2019-05-23T05:33:06.828Z,10.25
2019-05-23T05:35:35.612Z,10.32
2019-05-23T05:38:04.454Z,10.46
2019-05-23T05:40:33.017Z,10.49
2019-05-23T05:43:02.874Z,10.56
2019-05-23T05:45:33.139Z,10.63
2019-05-23T05:48:03.106Z,10.77
2019-05-23T05:50:32.920Z,10.89
2019-05-23T05:53:01.975Z,11.05
2019-05-23T05:55:30.640Z,11.22
2019-05-23T05:57:59.106Z,11.39
2019-05-23T06:00:29.586Z,11.54
2019-05-23T06:03:05.069Z,11.68
2019-05-23T06:05:32.194Z,11.85
2019-05-23T06:08:01.184Z,11.98
2019-05-23T06:10:29.707Z,11.97
2019-05-23T06:12:58.127Z,11.99
2019-05-23T06:15:27.451Z,12.12
2019-05-23T06:17:55.997Z,12.23
2019-05-23T06:20:25.905Z,12.38
2019-05-23T06:22:55.899Z,12.53
2019-05-23T06:25:25.237Z,12.57
2019-05-23T06:27:54.660Z,12.70
2019-05-23T06:30:24.761Z,12.74
2019-05-23T06:32:54.247Z,12.85
2019-05-23T06:35:22.879Z,12.95
2019-05-23T06:37:52.899Z,13.02
2019-05-23T06:40:21.599Z,13.22
2019-05-23T06:42:51.006Z,13.43
2019-05-23T06:45:20.832Z,13.64
2019-05-23T06:47:49.299Z,13.75
2019-05-23T06:50:20.477Z,13.87
2019-05-23T06:52:49.026Z,13.90
2019-05-23T06:55:17.479Z,14.04
2019-05-23T06:57:45.893Z,14.18
2019-05-23T07:00:17.696Z,14.42
2019-05-23T07:02:47.276Z,14.55
2019-05-23T07:05:18.750Z,14.68
2019-05-23T07:07:47.505Z,14.86
2019-05-23T07:10:17.036Z,15.15
2019-05-23T07:12:45.510Z,15.52
2019-05-23T07:15:14.050Z,15.84
2019-05-23T07:17:42.645Z,16.14
2019-05-23T07:20:12.041Z,16.39
2019-05-23T07:22:40.881Z,16.62
2019-05-23T07:25:09.694Z,16.72
2019-05-23T07:27:38.750Z,16.90
2019-05-23T07:30:10.280Z,17.16
2019-05-23T07:32:38.862Z,17.39
2019-05-23T07:35:07.266Z,17.55
2019-05-23T07:37:36.027Z,17.63
2019-05-23T07:40:06.593Z,17.76
2019-05-23T07:42:35.060Z,17.77
2019-05-23T07:45:08.746Z,17.82
2019-05-23T07:47:40.226Z,18.07
2019-05-23T07:50:08.645Z,18.42
2019-05-23T07:52:39.211Z,18.63
2019-05-23T07:55:09.327Z,18.59
2019-05-23T07:57:39.130Z,18.81
2019-05-23T08:00:12.380Z,18.96
2019-05-23T08:02:43.610Z,19.14
2019-05-23T08:05:13.037Z,19.29
2019-05-23T08:07:43.021Z,19.47
2019-05-23T08:10:12.698Z,19.63
2019-05-23T08:12:41.505Z,19.77
2019-05-23T08:15:11.233Z,19.73
2019-05-23T08:17:39.888Z,19.97
2019-05-23T08:20:09.980Z,19.99
2019-05-23T08:22:38.373Z,20.16
2019-05-23T08:25:06.963Z,20.43
2019-05-23T08:27:36.880Z,20.51
2019-05-23T08:30:10.283Z,20.54
2019-05-23T08:32:38.794Z,20.62
2019-05-23T08:35:08.369Z,20.66
2019-05-23T08:37:38.828Z,20.65
2019-05-23T08:40:10.349Z,20.76
2019-05-23T08:42:39.752Z,20.93
2019-05-23T08:45:09.800Z,21.12
2019-05-23T08:47:39.081Z,21.08
2019-05-23T08:50:11.530Z,21.06
2019-05-23T08:52:39.940Z,21.04
2019-05-23T08:55:23.502Z,21.18
2019-05-23T08:57:54.573Z,21.33
2019-05-23T09:00:26.323Z,21.34
2019-05-23T09:02:58.433Z,21.40
2019-05-23T09:05:27.828Z,21.65
2019-05-23T09:07:57.326Z,21.77
2019-05-23T09:10:27.357Z,21.72
2019-05-23T09:12:55.744Z,21.75
2019-05-23T09:15:24.467Z,21.91
2019-05-23T09:17:55.099Z,22.03
2019-05-23T09:20:23.696Z,22.15
2019-05-23T09:22:52.391Z,22.22
2019-05-23T09:25:20.935Z,22.42
2019-05-23T09:27:51.412Z,22.34
2019-05-23T09:30:21.765Z,22.49
2019-05-23T09:32:50.536Z,22.27
2019-05-23T09:35:22.381Z,22.37
2019-05-23T09:37:51.204Z,22.38
2019-05-23T09:40:19.978Z,22.62
2019-05-23T09:42:48.434Z,22.66
2019-05-23T09:45:18.705Z,22.83
2019-05-23T09:47:51.114Z,22.80
2019-05-23T09:50:22.233Z,22.58
2019-05-23T09:52:50.641Z,22.69
2019-05-23T09:55:20.962Z,23.04
2019-05-23T09:57:49.446Z,23.11
2019-05-23T10:00:19.701Z,23.27
2019-05-23T10:02:48.266Z,23.05
2019-05-23T10:05:16.893Z,23.20
2019-05-23T10:07:45.383Z,23.41
2019-05-23T10:10:14.986Z,23.19
2019-05-23T10:12:43.578Z,22.70
2019-05-23T10:15:19.988Z,22.35
2019-05-23T10:17:50.501Z,22.51
2019-05-23T10:20:20.746Z,22.83
2019-05-23T10:22:49.378Z,22.95
2019-05-23T10:25:17.935Z,23.25
2019-05-23T10:27:46.533Z,23.33
2019-05-23T10:30:18.267Z,23.52
2019-05-23T10:32:46.697Z,23.45
2019-05-23T10:35:15.837Z,23.40
2019-05-23T10:37:44.370Z,23.55
2019-05-23T10:40:15.827Z,23.89
2019-05-23T10:42:44.565Z,23.76
2019-05-23T10:45:14.072Z,23.95
2019-05-23T10:47:42.468Z,24.06
2019-05-23T10:50:11.011Z,24.13
2019-05-23T10:52:41.037Z,23.88
2019-05-23T10:55:12.163Z,23.90
2019-05-23T10:57:40.615Z,23.84
2019-05-23T11:00:11.306Z,24.05
2019-05-23T11:02:40.598Z,23.98
2019-05-23T11:05:13.633Z,24.09
2019-05-23T11:07:43.038Z,24.24
2019-05-23T11:10:12.881Z,24.32
2019-05-23T11:12:41.789Z,24.24
2019-05-23T11:15:11.870Z,24.37
2019-05-23T11:17:41.274Z,24.56
2019-05-23T11:20:11.279Z,24.76
2019-05-23T11:22:39.915Z,24.84
2019-05-23T11:25:10.938Z,24.58
2019-05-23T11:27:40.145Z,24.44
2019-05-23T11:30:12.002Z,24.60
2019-05-23T11:32:40.453Z,24.55
2019-05-23T11:35:11.068Z,24.70
2019-05-23T11:37:41.833Z,24.59
2019-05-23T11:40:10.366Z,24.60
2019-05-23T11:42:38.744Z,24.66
2019-05-23T11:45:08.408Z,24.79
2019-05-23T11:47:37.787Z,24.31
2019-05-23T11:50:07.336Z,23.50
2019-05-23T11:52:35.720Z,23.06
2019-05-23T11:55:07.707Z,22.90
2019-05-23T11:57:38.457Z,22.60
2019-05-23T12:00:10.711Z,22.45
2019-05-23T12:02:43.709Z,22.05
2019-05-23T12:05:17.354Z,22.05
2019-05-23T12:07:45.806Z,22.12
2019-05-23T12:10:15.733Z,22.02
2019-05-23T12:12:44.174Z,22.33
2019-05-23T12:15:15.320Z,22.39
2019-05-23T12:17:44.143Z,22.25
2019-05-23T12:20:13.853Z,22.30
2019-05-23T12:22:43.533Z,22.05
2019-05-23T12:25:22.000Z,21.85
2019-05-23T12:27:44.646Z,21.65
2019-05-23T12:30:15.731Z,21.60
2019-05-23T12:32:44.181Z,21.73
2019-05-23T12:35:12.871Z,21.87
2019-05-23T12:37:41.259Z,22.25
2019-05-23T12:40:11.915Z,22.75
2019-05-23T12:42:40.505Z,22.84
2019-05-23T12:45:10.639Z,22.78
2019-05-23T12:47:40.749Z,22.90
2019-05-23T12:50:11.673Z,23.14
2019-05-23T12:52:40.117Z,23.63
2019-05-23T12:55:08.567Z,23.99
2019-05-23T12:57:37.395Z,24.04
2019-05-23T13:00:09.441Z,23.78
2019-05-23T13:02:38.407Z,23.45
2019-05-23T13:05:09.259Z,23.06
2019-05-23T13:07:37.634Z,23.05
2019-05-23T13:10:07.227Z,23.27
2019-05-23T13:12:35.859Z,23.64
2019-05-23T13:15:07.570Z,24.07
2019-05-23T13:17:36.159Z,24.26
2019-05-23T13:20:06.962Z,24.07
2019-05-23T13:22:35.378Z,24.12
2019-05-23T13:25:10.398Z,24.34
2019-05-23T13:27:38.814Z,24.38
2019-05-23T13:30:08.917Z,24.54
2019-05-23T13:32:37.317Z,24.59
2019-05-23T13:35:08.771Z,24.85
2019-05-23T13:37:52.349Z,24.89
2019-05-23T13:40:08.504Z,24.73
2019-05-23T13:42:37.239Z,24.87
2019-05-23T13:45:07.356Z,24.61
2019-05-23T13:47:36.236Z,24.32
2019-05-23T13:50:08.903Z,24.22
2019-05-23T13:52:37.371Z,23.71
2019-05-23T13:55:07.370Z,23.60
2019-05-23T13:57:40.095Z,23.60
2019-05-23T14:00:12.867Z,23.47
2019-05-23T14:02:41.264Z,23.53
2019-05-23T14:05:10.253Z,23.68
2019-05-23T14:07:39.001Z,23.69
2019-05-23T14:10:09.643Z,23.83
2019-05-23T14:12:38.901Z,23.69
2019-05-23T14:15:10.403Z,23.73
2019-05-23T14:17:45.878Z,23.70
2019-05-23T14:20:15.761Z,23.50
2019-05-23T14:22:46.780Z,23.48
2019-05-23T14:25:17.310Z,23.45
2019-05-23T14:27:47.366Z,23.39
2019-05-23T14:30:26.027Z,23.53
2019-05-23T14:33:12.326Z,23.66
2019-05-23T14:35:45.316Z,23.65
2019-05-23T14:38:29.566Z,23.68
2019-05-23T14:40:46.248Z,23.64
2019-05-23T14:43:16.366Z,23.64
2019-05-23T14:46:01.671Z,23.44
2019-05-23T14:48:37.899Z,23.48
2019-05-23T14:51:22.929Z,23.44
2019-05-23T14:53:55.785Z,23.32
2019-05-23T14:56:26.129Z,23.30
2019-05-23T14:58:54.682Z,23.26
2019-05-23T15:01:24.702Z,23.21
2019-05-23T15:03:53.193Z,23.26
2019-05-23T15:06:21.595Z,23.30
2019-05-23T15:08:52.223Z,23.33
2019-05-23T15:11:20.763Z,23.31
2019-05-23T15:13:51.337Z,23.17
2019-05-23T15:16:19.721Z,23.13
2019-05-23T15:18:48.371Z,23.08
2019-05-23T15:21:16.934Z,22.97
2019-05-23T15:23:45.889Z,22.83
2019-05-23T15:26:22.774Z,22.72
2019-05-23T15:28:45.535Z,22.67
2019-05-23T15:31:14.113Z,22.44
2019-05-23T15:33:42.511Z,22.31
2019-05-23T15:36:10.932Z,22.15
2019-05-23T15:38:39.427Z,22.07
2019-05-23T15:41:07.829Z,22.03
2019-05-23T15:43:36.238Z,21.99
2019-05-23T15:46:04.782Z,21.94
2019-05-23T15:48:33.318Z,21.86
2019-05-23T15:51:02.017Z,21.77
2019-05-23T15:53:45.628Z,21.67
2019-05-23T15:56:27.464Z,21.51
2019-05-23T15:58:50.148Z,21.44
2019-05-23T16:01:20.244Z,21.39
2019-05-23T16:03:56.281Z,21.32
2019-05-23T16:06:27.830Z,21.28
2019-05-23T16:08:56.407Z,21.18
2019-05-23T16:11:26.200Z,21.12
2019-05-23T16:13:55.054Z,21.03
2019-05-23T16:16:25.877Z,20.95
2019-05-23T16:18:54.451Z,20.86
2019-05-23T16:21:23.154Z,20.83
2019-05-23T16:23:51.743Z,20.80
2019-05-23T16:26:20.228Z,20.76
2019-05-23T16:28:48.609Z,20.74
2019-05-23T16:31:17.401Z,20.71
2019-05-23T16:33:45.940Z,20.67
2019-05-23T16:36:14.342Z,20.63
2019-05-23T16:38:42.734Z,20.61
2019-05-23T16:41:11.857Z,20.57
2019-05-23T16:43:40.386Z,20.56
2019-05-23T16:46:08.875Z,20.54
2019-05-23T16:48:37.965Z,20.43
2019-05-23T16:51:06.505Z,20.43
2019-05-23T16:53:36.502Z,20.47
2019-05-23T16:56:07.365Z,20.43
2019-05-23T16:58:50.124Z,20.44
2019-05-23T17:01:32.511Z,20.41
2019-05-23T17:04:08.402Z,20.38
2019-05-23T17:06:50.652Z,20.34
2019-05-23T17:09:20.692Z,20.35
2019-05-23T17:11:56.280Z,20.34
2019-05-23T17:14:26.327Z,20.35
2019-05-23T17:17:12.255Z,20.30
2019-05-23T17:19:42.395Z,20.27
2019-05-23T17:22:18.895Z,20.22
2019-05-23T17:24:54.665Z,20.17
2019-05-23T17:27:28.036Z,20.10
2019-05-23T17:30:07.991Z,20.07
2019-05-23T17:32:35.471Z,20.01
2019-05-23T17:35:06.685Z,19.99
2019-05-23T17:37:38.062Z,19.90
2019-05-23T17:40:23.210Z,19.87
2019-05-23T17:42:40.245Z,19.78
2019-05-23T17:45:08.810Z,19.68
2019-05-23T17:47:37.659Z,19.61
2019-05-23T17:50:07.805Z,19.51
2019-05-23T17:52:36.194Z,19.43
2019-05-23T17:55:06.588Z,19.35
2019-05-23T17:57:35.115Z,19.32
2019-05-23T18:00:07.464Z,19.27
2019-05-23T18:02:36.078Z,19.20
2019-05-23T18:05:08.227Z,19.10
2019-05-23T18:07:38.147Z,19.00
2019-05-23T18:10:10.001Z,18.96
2019-05-23T18:12:38.763Z,18.92
2019-05-23T18:15:09.181Z,18.85
2019-05-23T18:17:38.911Z,18.77
2019-05-23T18:20:08.783Z,18.73
2019-05-23T18:22:37.792Z,18.69
2019-05-23T18:25:08.528Z,18.63
2019-05-23T18:27:37.281Z,18.57
2019-05-23T18:30:28.262Z,18.54
2019-05-23T18:32:56.770Z,18.54
2019-05-23T18:35:27.547Z,18.47
2019-05-23T18:37:56.073Z,18.36
2019-05-23T18:40:24.761Z,18.24
2019-05-23T18:42:53.503Z,18.11
2019-05-23T18:45:23.371Z,17.98
2019-05-23T18:47:52.011Z,17.85
2019-05-23T18:50:23.024Z,17.72
2019-05-23T18:52:54.666Z,17.61
2019-05-23T18:55:23.158Z,17.51
2019-05-23T18:57:52.662Z,17.39
2019-05-23T19:00:30.131Z,17.29
2019-05-23T19:02:58.513Z,17.18
2019-05-23T19:05:27.719Z,17.09
2019-05-23T19:07:58.152Z,16.96
2019-05-23T19:10:27.193Z,16.84
2019-05-23T19:12:55.580Z,16.62
2019-05-23T19:15:25.835Z,16.65
2019-05-23T19:17:55.720Z,16.54
2019-05-23T19:20:24.106Z,16.42
2019-05-23T19:22:54.541Z,16.30
2019-05-23T19:25:24.994Z,16.20
2019-05-23T19:27:53.609Z,16.10
2019-05-23T19:30:22.556Z,16.00
2019-05-23T19:32:52.459Z,15.90
2019-05-23T19:35:21.540Z,15.81
2019-05-23T19:37:50.024Z,15.71
2019-05-23T19:40:19.077Z,15.62
2019-05-23T19:42:47.626Z,15.52
2019-05-23T19:45:16.019Z,15.37
2019-05-23T19:47:44.450Z,15.37
2019-05-23T19:50:13.184Z,15.27
2019-05-23T19:52:41.598Z,15.16
2019-05-23T19:55:11.705Z,15.08
2019-05-23T19:57:45.000Z,15.02
2019-05-23T20:00:19.656Z,14.94
2019-05-23T20:02:55.871Z,14.87
2019-05-23T20:05:30.838Z,14.79
2019-05-23T20:07:59.872Z,14.72
2019-05-23T20:10:28.825Z,14.66
2019-05-23T20:12:57.365Z,14.59
2019-05-23T20:15:25.918Z,14.54
2019-05-23T20:17:54.377Z,14.50
2019-05-23T20:20:22.808Z,14.48
2019-05-23T20:22:51.351Z,14.46
2019-05-23T20:25:21.747Z,14.44
2019-05-23T20:27:50.177Z,14.37
2019-05-23T20:30:45.463Z,14.30
2019-05-23T20:33:14.763Z,14.21
2019-05-23T20:35:43.685Z,14.13
2019-05-23T20:38:12.231Z,14.05
2019-05-23T20:40:42.318Z,13.97
2019-05-23T20:43:10.784Z,13.91
2019-05-23T20:45:40.737Z,13.83
2019-05-23T20:48:11.331Z,13.77
2019-05-23T20:50:41.885Z,13.71
2019-05-23T20:53:10.802Z,13.69
2019-05-23T20:55:39.473Z,13.64
2019-05-23T20:58:09.495Z,13.60
2019-05-23T21:00:41.170Z,13.56
2019-05-23T21:03:09.681Z,13.48
2019-05-23T21:05:38.632Z,13.44
2019-05-23T21:08:07.031Z,13.37
2019-05-23T21:10:44.410Z,13.33
2019-05-23T21:13:12.963Z,13.28
2019-05-23T21:15:41.346Z,13.25
2019-05-23T21:18:09.861Z,13.12
2019-05-23T21:20:39.830Z,13.18
2019-05-23T21:23:08.310Z,13.14
2019-05-23T21:25:38.493Z,13.10
2019-05-23T21:28:07.065Z,13.07
2019-05-23T21:30:35.457Z,13.02
2019-05-23T21:33:05.212Z,12.98
2019-05-23T21:35:33.850Z,12.88
2019-05-23T21:38:03.771Z,12.88
2019-05-23T21:40:37.741Z,12.83
2019-05-23T21:43:06.568Z,12.78
2019-05-23T21:45:35.025Z,12.75
2019-05-23T21:48:04.741Z,12.72
2019-05-23T21:50:33.339Z,12.62
2019-05-23T21:53:02.323Z,12.62
2019-05-23T21:55:41.884Z,12.58
2019-05-23T21:58:12.688Z,12.53
2019-05-23T22:01:07.135Z,12.48
2019-05-23T22:03:49.527Z,12.44
2019-05-23T22:06:19.714Z,12.39
2019-05-23T22:08:50.564Z,12.36
2019-05-23T22:11:19.324Z,12.32
2019-05-23T22:13:48.050Z,12.27
2019-05-23T22:16:17.526Z,12.24
2019-05-23T22:18:46.656Z,12.20
2019-05-23T22:21:15.216Z,12.15
2019-05-23T22:23:43.852Z,12.13
2019-05-23T22:26:12.343Z,12.10
2019-05-23T22:28:40.898Z,12.05
2019-05-23T22:31:11.495Z,12.01
2019-05-23T22:33:53.618Z,11.96
2019-05-23T22:36:23.892Z,11.94
2019-05-23T22:38:52.491Z,11.90
2019-05-23T22:41:20.869Z,11.87
2019-05-23T22:43:49.259Z,11.85
2019-05-23T22:46:19.407Z,11.81
2019-05-23T22:48:47.894Z,11.79
2019-05-23T22:51:16.356Z,11.74
2019-05-23T22:53:44.743Z,11.65
2019-05-23T22:56:13.233Z,11.64
2019-05-23T22:58:41.815Z,11.59
2019-05-23T23:01:10.558Z,11.54
2019-05-23T23:03:38.944Z,11.51
2019-05-23T23:06:07.436Z,11.48
2019-05-23T23:08:36.093Z,11.46
2019-05-23T23:11:05.269Z,11.42
2019-05-23T23:13:38.501Z,11.40
2019-05-23T23:16:05.732Z,11.37
2019-05-23T23:18:34.216Z,11.32
2019-05-23T23:21:04.350Z,11.26
2019-05-23T23:23:34.331Z,11.20
2019-05-23T23:26:04.423Z,11.13
2019-05-23T23:28:33.390Z,11.05
2019-05-23T23:31:01.899Z,11.00
2019-05-23T23:33:30.366Z,10.95
2019-05-23T23:35:58.947Z,10.88
2019-05-23T23:38:27.500Z,10.81
2019-05-23T23:40:56.107Z,10.75
2019-05-23T23:43:24.677Z,10.69
2019-05-23T23:46:10.654Z,10.69
2019-05-23T23:48:56.658Z,10.65
2019-05-23T23:51:42.680Z,10.60
2019-05-23T23:54:29.130Z,10.56
2019-05-23T23:57:15.390Z,10.50
2019-05-23T23:59:44.559Z,10.46
